createdAt,value
2019-04-19T00:00:38.385Z,20.50
2019-04-19T00:03:06.677Z,21.10
2019-04-19T00:05:40.351Z,24.60
2019-04-19T00:08:25.478Z,22.93
2019-04-19T00:10:46.087Z,24.57
2019-04-19T00:13:07.922Z,19.90
2019-04-19T00:15:37.291Z,24.77
2019-04-19T00:18:10.491Z,26.30
2019-04-19T00:20:55.712Z,21.60
2019-04-19T00:23:15.417Z,25.57
2019-04-19T00:25:36.547Z,22.10
2019-04-19T00:28:05.525Z,26.23
2019-04-19T00:30:47.253Z,23.87
2019-04-19T00:33:14.705Z,23.27
2019-04-19T00:35:34.783Z,23.23
2019-04-19T00:38:08.238Z,21.10
2019-04-19T00:41:03.072Z,23.10
2019-04-19T00:43:35.582Z,22.10
2019-04-19T00:46:05.794Z,24.43
2019-04-19T00:48:46.063Z,28.77
2019-04-19T00:51:02.721Z,22.50
2019-04-19T00:53:28.633Z,26.37
2019-04-19T00:55:58.834Z,22.50
2019-04-19T00:58:21.760Z,34.20
2019-04-19T01:00:46.497Z,25.83
2019-04-19T01:03:16.416Z,28.13
2019-04-19T01:05:52.658Z,22.87
2019-04-19T01:08:20.690Z,22.57
2019-04-19T01:11:02.488Z,23.90
2019-04-19T01:13:30.397Z,25.97
2019-04-19T01:15:59.935Z,23.80
2019-04-19T01:18:27.765Z,23.63
2019-04-19T01:20:44.240Z,28.60
2019-04-19T01:23:15.406Z,21.30
2019-04-19T01:25:45.907Z,24.37
2019-04-19T01:28:17.786Z,25.50
2019-04-19T01:30:44.464Z,22.83
2019-04-19T01:33:12.557Z,24.60
2019-04-19T01:35:46.452Z,26.40
2019-04-19T01:38:12.290Z,25.10
2019-04-19T01:40:58.979Z,25.93
2019-04-19T01:43:32.872Z,25.13
2019-04-19T01:45:59.456Z,21.40
2019-04-19T01:48:43.133Z,23.73
2019-04-19T01:51:15.778Z,27.40
2019-04-19T01:53:46.124Z,21.37
2019-04-19T01:56:06.337Z,24.93
2019-04-19T01:58:31.548Z,25.80
2019-04-19T02:01:01.606Z,27.53
2019-04-19T02:03:37.984Z,29.40
2019-04-19T02:06:05.191Z,27.73
2019-04-19T02:08:33.159Z,22.77
2019-04-19T02:11:29.470Z,24.13
2019-04-19T02:13:58.020Z,24.90
2019-04-19T02:16:21.961Z,22.63
2019-04-19T02:18:47.407Z,25.30
2019-04-19T02:21:22.504Z,23.70
2019-04-19T02:23:52.249Z,27.97
2019-04-19T02:26:19.650Z,23.73
2019-04-19T02:28:45.831Z,25.00
2019-04-19T02:31:41.021Z,22.53
2019-04-19T02:34:15.027Z,32.90
2019-04-19T02:36:52.148Z,30.93
2019-04-19T02:39:26.046Z,27.30
2019-04-19T02:41:38.678Z,28.50
2019-04-19T02:51:44.975Z,22.60
2019-04-19T02:54:20.336Z,26.50
2019-04-19T02:57:02.831Z,24.27
2019-04-19T03:00:01.429Z,26.47
2019-04-19T03:02:31.848Z,25.63
2019-04-19T03:05:03.984Z,22.00
2019-04-19T03:07:04.066Z,23.10
2019-04-19T03:09:34.998Z,25.30
2019-04-19T03:12:16.754Z,29.90
2019-04-19T03:14:49.319Z,26.23
2019-04-19T03:17:19.248Z,23.20
2019-04-19T03:19:47.176Z,23.20
2019-04-19T03:22:19.624Z,23.50
2019-04-19T03:24:48.241Z,31.10
2019-04-19T03:27:06.404Z,22.60
2019-04-19T03:29:34.938Z,24.17
2019-04-19T03:32:37.725Z,27.50
2019-04-19T03:34:57.635Z,24.67
2019-04-19T03:37:14.925Z,21.97
2019-04-19T03:39:58.715Z,25.30
2019-04-19T03:42:40.921Z,27.83
2019-04-19T03:45:08.590Z,25.80
2019-04-19T03:47:44.602Z,25.93
2019-04-19T03:50:10.470Z,26.87
2019-04-19T03:52:37.009Z,25.20
2019-04-19T03:55:09.646Z,25.73
2019-04-19T03:57:31.533Z,27.47
2019-04-19T03:59:50.107Z,30.73
2019-04-19T04:02:24.486Z,22.63
2019-04-19T04:04:52.679Z,30.40
2019-04-19T04:07:23.779Z,31.70
2019-04-19T04:09:57.488Z,28.83
2019-04-19T04:12:37.981Z,23.33
2019-04-19T04:15:14.134Z,28.93
2019-04-19T04:17:33.367Z,24.30
2019-04-19T04:20:03.141Z,25.70
2019-04-19T04:22:37.325Z,25.50
2019-04-19T04:25:09.363Z,25.30
2019-04-19T04:27:43.693Z,22.90
2019-04-19T04:30:13.024Z,30.47
2019-04-19T04:32:42.852Z,28.93
2019-04-19T04:35:23.111Z,21.73
2019-04-19T04:37:44.677Z,24.53
2019-04-19T04:40:02.161Z,22.30
2019-04-19T04:42:40.488Z,25.77
2019-04-19T04:45:24.685Z,25.23
2019-04-19T04:47:51.658Z,21.10
2019-04-19T04:50:50.767Z,25.40
2019-04-19T04:53:10.917Z,23.40
2019-04-19T04:55:44.897Z,28.93
2019-04-19T04:58:19.761Z,26.60
2019-04-19T05:00:49.469Z,22.40
2019-04-19T05:03:32.829Z,22.63
2019-04-19T05:06:02.873Z,31.53
2019-04-19T05:08:29.519Z,25.13
2019-04-19T05:11:01.588Z,28.80
2019-04-19T05:13:27.976Z,27.20
2019-04-19T05:15:58.093Z,25.23
2019-04-19T05:18:30.512Z,25.20
2019-04-19T05:20:51.839Z,24.07
2019-04-19T05:23:26.027Z,24.40
2019-04-19T05:26:02.745Z,21.40
2019-04-19T05:28:27.734Z,28.40
2019-04-19T05:30:49.788Z,22.87
2019-04-19T05:33:19.575Z,22.57
2019-04-19T05:36:02.863Z,25.03
2019-04-19T05:38:30.588Z,21.37
2019-04-19T05:41:05.984Z,27.30
2019-04-19T05:46:34.934Z,22.33
2019-04-19T05:48:50.762Z,26.73
2019-04-19T05:51:42.338Z,22.83
2019-04-19T05:53:47.951Z,23.43
2019-04-19T05:56:13.838Z,27.73
2019-04-19T05:58:55.847Z,22.40
2019-04-19T06:01:32.801Z,22.43
2019-04-19T06:03:57.715Z,24.20
2019-04-19T06:06:38.967Z,20.07
2019-04-19T06:08:42.864Z,21.33
2019-04-19T06:11:16.164Z,23.80
2019-04-19T06:13:44.692Z,25.03
2019-04-19T06:16:25.421Z,24.80
2019-04-19T06:19:03.353Z,26.40
2019-04-19T06:21:34.118Z,21.43
2019-04-19T06:24:06.372Z,27.83
2019-04-19T06:29:24.026Z,21.83
2019-04-19T06:31:42.906Z,21.20
2019-04-19T06:34:04.735Z,27.03
2019-04-19T06:36:17.546Z,22.57
2019-04-19T06:38:46.510Z,26.10
2019-04-19T06:41:18.616Z,21.90
2019-04-19T06:43:56.636Z,20.30
2019-04-19T06:46:30.376Z,26.10
2019-04-19T06:48:54.274Z,22.20
2019-04-19T06:51:26.495Z,26.57
2019-04-19T06:53:52.124Z,21.13
2019-04-19T06:56:24.609Z,24.50
2019-04-19T06:58:55.909Z,19.90
2019-04-19T07:01:28.129Z,16.90
2019-04-19T07:03:45.014Z,20.33
2019-04-19T07:06:28.202Z,20.47
2019-04-19T07:09:07.594Z,21.00
2019-04-19T07:11:35.686Z,20.73
2019-04-19T07:13:53.116Z,22.30
2019-04-19T07:16:34.954Z,17.40
2019-04-19T07:18:56.055Z,18.17
2019-04-19T07:21:33.461Z,22.90
2019-04-19T07:24:03.506Z,20.60
2019-04-19T07:26:35.951Z,20.20
2019-04-19T07:28:43.561Z,19.13
2019-04-19T07:31:14.554Z,22.00
2019-04-19T07:33:53.789Z,33.13
2019-04-19T07:36:32.083Z,20.47
2019-04-19T07:39:03.223Z,25.90
2019-04-19T07:41:29.307Z,24.43
2019-04-19T07:43:54.410Z,18.93
2019-04-19T07:46:35.295Z,23.30
2019-04-19T07:48:51.492Z,19.10
2019-04-19T07:51:28.263Z,17.40
2019-04-19T07:53:52.747Z,18.30
2019-04-19T07:56:31.393Z,18.60
2019-04-19T07:59:16.721Z,18.03
2019-04-19T08:06:58.279Z,22.17
2019-04-19T08:12:03.109Z,20.33
2019-04-19T08:28:56.684Z,25.00
2019-04-19T08:31:19.519Z,22.00
2019-04-19T08:33:48.999Z,22.50
2019-04-19T08:36:25.559Z,17.47
2019-04-19T08:39:07.885Z,22.17
2019-04-19T08:41:25.495Z,19.50
2019-04-19T08:44:05.016Z,17.60
2019-04-19T08:46:30.700Z,18.23
2019-04-19T08:49:06.271Z,17.27
2019-04-19T08:51:37.140Z,18.50
2019-04-19T08:54:27.037Z,18.23
2019-04-19T08:56:47.541Z,20.23
2019-04-19T08:59:34.595Z,15.50
2019-04-19T09:01:57.413Z,17.20
2019-04-19T09:04:27.947Z,19.43
2019-04-19T09:07:29.912Z,16.67
2019-04-19T09:09:27.338Z,23.50
2019-04-19T09:11:57.765Z,16.73
2019-04-19T09:14:33.075Z,17.30
2019-04-19T09:17:01.372Z,14.93
2019-04-19T09:19:37.075Z,16.40
2019-04-19T09:21:46.181Z,14.27
2019-04-19T09:24:12.949Z,15.73
2019-04-19T09:26:53.076Z,18.63
2019-04-19T09:29:33.571Z,20.03
2019-04-19T09:31:49.133Z,17.17
2019-04-19T09:34:10.401Z,13.23
2019-04-19T09:36:45.548Z,18.43
2019-04-19T09:39:22.060Z,17.07
2019-04-19T09:41:44.222Z,20.13
2019-04-19T09:44:15.888Z,24.33
2019-04-19T09:46:38.093Z,19.67
2019-04-19T09:49:20.233Z,16.30
2019-04-19T09:51:51.212Z,15.07
2019-04-19T09:54:26.673Z,12.60
2019-04-19T09:56:55.845Z,18.33
2019-04-19T09:59:14.342Z,13.77
2019-04-19T10:01:42.081Z,15.07
2019-04-19T10:04:06.502Z,12.93
2019-04-19T10:06:35.724Z,17.13
2019-04-19T10:09:11.726Z,13.57
2019-04-19T10:11:36.982Z,19.23
2019-04-19T10:14:06.475Z,18.00
2019-04-19T10:16:36.821Z,15.03
2019-04-19T10:19:06.902Z,14.57
2019-04-19T10:21:38.652Z,12.20
2019-04-19T10:24:11.728Z,13.47
2019-04-19T10:26:48.364Z,15.27
2019-04-19T10:29:24.603Z,19.53
2019-04-19T10:32:04.463Z,15.90
2019-04-19T10:34:32.891Z,15.33
2019-04-19T10:37:01.884Z,18.50
2019-04-19T10:39:31.844Z,14.10
2019-04-19T10:42:00.180Z,14.70
2019-04-19T10:44:29.719Z,15.33
2019-04-19T10:46:59.040Z,15.80
2019-04-19T10:49:36.066Z,19.57
2019-04-19T10:51:58.788Z,15.77
2019-04-19T10:54:27.052Z,14.00
2019-04-19T10:56:56.934Z,20.33
2019-04-19T10:59:25.209Z,16.93
2019-04-19T11:01:53.426Z,13.60
2019-04-19T11:04:22.781Z,13.80
2019-04-19T11:06:53.555Z,20.87
2019-04-19T11:09:22.793Z,14.70
2019-04-19T11:11:51.923Z,12.90
2019-04-19T11:14:20.228Z,13.83
2019-04-19T11:16:49.370Z,23.50
2019-04-19T11:19:28.112Z,17.53
2019-04-19T11:21:47.728Z,14.97
2019-04-19T11:24:15.946Z,20.73
2019-04-19T11:26:45.286Z,15.07
2019-04-19T11:29:13.676Z,16.20
2019-04-19T11:32:01.951Z,15.30
2019-04-19T11:34:31.403Z,15.80
2019-04-19T11:36:59.977Z,12.20
2019-04-19T11:39:28.416Z,16.27
2019-04-19T11:41:56.993Z,13.37
2019-04-19T11:44:27.402Z,13.07
2019-04-19T11:46:56.215Z,13.20
2019-04-19T11:49:32.211Z,13.83
2019-04-19T11:51:55.315Z,11.93
2019-04-19T11:54:24.195Z,12.70
2019-04-19T11:57:10.729Z,13.77
2019-04-19T11:59:48.822Z,14.33
2019-04-19T12:02:23.999Z,11.17
2019-04-19T12:04:52.457Z,15.43
2019-04-19T12:07:20.835Z,18.00
2019-04-19T12:09:50.210Z,14.60
2019-04-19T12:12:19.224Z,11.83
2019-04-19T12:14:48.561Z,11.13
2019-04-19T12:17:18.278Z,22.50
2019-04-19T12:19:52.938Z,20.77
2019-04-19T12:22:17.128Z,15.00
2019-04-19T12:24:46.737Z,9.50
2019-04-19T12:27:15.839Z,13.13
2019-04-19T12:29:48.011Z,13.13
2019-04-19T12:32:15.719Z,13.83
2019-04-19T12:34:44.672Z,11.03
2019-04-19T12:37:13.302Z,10.40
2019-04-19T12:39:43.140Z,13.70
2019-04-19T12:42:13.532Z,10.83
2019-04-19T12:44:42.062Z,11.77
2019-04-19T12:47:11.075Z,10.70
2019-04-19T12:49:52.111Z,12.33
2019-04-19T12:52:10.192Z,15.00
2019-04-19T12:54:39.335Z,11.37
2019-04-19T12:57:07.841Z,10.40
2019-04-19T12:59:36.057Z,10.33
2019-04-19T13:02:06.076Z,10.40
2019-04-19T13:04:36.204Z,12.37
2019-04-19T13:07:06.328Z,13.20
2019-04-19T13:09:34.972Z,15.10
2019-04-19T13:12:03.457Z,16.57
2019-04-19T13:14:31.677Z,16.23
2019-04-19T13:17:00.154Z,12.70
2019-04-19T13:19:29.146Z,11.83
2019-04-19T13:21:58.639Z,11.17
2019-04-19T13:24:27.048Z,9.40
2019-04-19T13:26:55.357Z,9.47
2019-04-19T13:29:23.528Z,10.50
2019-04-19T13:31:52.520Z,8.90
2019-04-19T13:34:21.015Z,11.47
2019-04-19T13:37:07.385Z,8.47
2019-04-19T13:39:56.280Z,8.97
2019-04-19T13:42:26.777Z,14.77
2019-04-19T13:45:08.253Z,9.73
2019-04-19T13:47:25.034Z,14.07
2019-04-19T13:49:54.510Z,8.53
2019-04-19T13:52:24.281Z,8.73
2019-04-19T13:54:52.650Z,8.58
2019-04-19T13:57:21.726Z,9.00
2019-04-19T17:33:08.493Z,8.93
2019-04-19T17:35:36.781Z,10.80
2019-04-19T17:38:05.850Z,6.80
2019-04-19T17:40:34.457Z,7.07
2019-04-19T17:43:03.504Z,6.90
2019-04-19T17:45:31.796Z,8.57
2019-04-19T17:48:00.671Z,7.97
2019-04-19T17:50:29.090Z,9.03
2019-04-19T17:52:57.333Z,11.20
2019-04-19T17:55:31.613Z,10.90
2019-04-19T17:57:55.448Z,10.90
2019-04-19T18:00:24.042Z,7.57
2019-04-19T18:02:53.003Z,10.13
2019-04-19T18:05:22.265Z,10.47
2019-04-19T18:07:52.164Z,9.07
2019-04-19T18:10:26.773Z,6.93
2019-04-19T18:12:51.212Z,8.67
2019-04-19T18:15:19.669Z,7.50
2019-04-19T18:17:55.532Z,9.90
2019-04-19T18:20:19.992Z,6.87
2019-04-19T18:22:56.887Z,8.23
2019-04-19T18:25:18.023Z,8.63
2019-04-19T18:27:51.267Z,9.93
2019-04-19T18:30:17.931Z,7.83
2019-04-19T18:33:06.179Z,10.07
2019-04-19T18:35:36.817Z,7.57
2019-04-19T18:38:08.652Z,9.87
2019-04-19T18:40:35.370Z,7.80
2019-04-19T18:43:15.984Z,7.93
2019-04-19T18:45:37.729Z,8.90
2019-04-19T18:48:03.415Z,9.17
2019-04-19T18:50:32.913Z,9.03
2019-04-19T18:53:12.227Z,9.90
2019-04-19T18:55:37.140Z,9.30
2019-04-19T18:58:02.366Z,10.57
2019-04-19T19:00:35.587Z,11.33
2019-04-19T19:03:02.563Z,8.43
2019-04-19T19:05:30.435Z,11.63
2019-04-19T19:08:04.368Z,10.10
2019-04-19T19:10:39.059Z,10.60
2019-04-19T19:12:58.433Z,12.60
2019-04-19T19:15:30.913Z,8.80
2019-04-19T19:17:59.518Z,8.00
2019-04-19T19:20:34.437Z,7.70
2019-04-19T19:23:15.352Z,13.63
2019-04-19T19:25:40.748Z,7.07
2019-04-19T19:28:04.180Z,10.63
2019-04-19T19:30:33.194Z,10.60
2019-04-19T19:33:09.756Z,9.50
2019-04-19T19:35:33.236Z,7.03
2019-04-19T19:38:09.884Z,10.23
2019-04-19T19:40:39.093Z,10.83
2019-04-19T19:43:22.539Z,10.67
2019-04-19T19:45:44.075Z,7.93
2019-04-19T19:48:26.451Z,10.87
2019-04-19T19:51:01.569Z,7.03
2019-04-19T19:53:40.318Z,8.40
2019-04-19T19:55:54.852Z,6.57
2019-04-19T19:58:17.203Z,6.37
2019-04-19T20:00:56.795Z,10.23
2019-04-19T20:03:16.377Z,5.63
2019-04-19T20:05:40.483Z,7.73
2019-04-19T20:08:08.031Z,5.63
2019-04-19T20:10:41.546Z,5.77
2019-04-19T20:13:12.239Z,7.33
2019-04-19T20:15:39.555Z,6.77
2019-04-19T20:18:06.518Z,4.47
2019-04-19T20:20:38.912Z,4.90
2019-04-19T20:23:04.881Z,6.20
2019-04-19T20:25:41.945Z,9.03
2019-04-19T20:28:03.094Z,5.77
2019-04-19T20:30:36.782Z,7.27
2019-04-19T20:33:02.824Z,5.40
2019-04-19T20:35:32.358Z,5.00
2019-04-19T20:38:06.928Z,4.90
2019-04-19T20:40:32.313Z,6.37
2019-04-19T20:43:20.290Z,7.30
2019-04-19T20:45:38.945Z,5.40
2019-04-19T20:48:09.325Z,7.67
2019-04-19T20:50:46.297Z,5.33
2019-04-19T20:53:19.736Z,7.67
2019-04-19T20:56:10.216Z,3.97
2019-04-19T20:58:27.292Z,5.10
2019-04-19T21:00:50.510Z,7.20
2019-04-19T21:03:26.105Z,5.00
2019-04-19T21:05:50.841Z,4.57
2019-04-19T21:08:22.833Z,5.23
2019-04-19T21:10:55.415Z,6.67
2019-04-19T21:13:21.026Z,11.07
2019-04-19T21:15:48.733Z,6.33
2019-04-19T21:18:23.611Z,6.13
2019-04-19T21:20:47.062Z,4.60
2019-04-19T21:23:22.025Z,6.27
2019-04-19T21:25:51.993Z,5.07
2019-04-19T21:28:15.005Z,6.50
2019-04-19T21:30:47.111Z,5.03
2019-04-19T21:33:15.486Z,5.93
2019-04-19T21:35:51.401Z,4.97
2019-04-19T21:38:17.670Z,6.00
2019-04-19T21:40:44.951Z,5.10
2019-04-19T21:43:13.090Z,6.60
2019-04-19T21:45:46.339Z,5.93
2019-04-19T21:48:11.370Z,5.83
2019-04-19T21:50:44.051Z,7.90
2019-04-19T21:53:11.011Z,4.47
2019-04-19T21:55:43.782Z,5.70
2019-04-19T21:58:13.334Z,8.17
2019-04-19T22:00:58.720Z,6.43
2019-04-19T22:03:26.559Z,6.60
2019-04-19T22:05:55.117Z,6.87
2019-04-19T22:08:27.954Z,6.40
2019-04-19T22:10:54.208Z,7.90
2019-04-19T22:13:24.357Z,5.70
2019-04-19T22:15:55.287Z,6.77
2019-04-19T22:18:23.563Z,7.60
2019-04-19T22:20:57.058Z,5.87
2019-04-19T22:23:22.450Z,7.80
2019-04-19T22:25:59.699Z,9.70
2019-04-19T22:28:21.562Z,8.70
2019-04-19T22:30:52.849Z,13.40
2019-04-19T22:33:20.661Z,9.70
2019-04-19T22:35:55.018Z,8.73
2019-04-19T22:38:22.116Z,10.07
2019-04-19T22:40:48.725Z,10.80
2019-04-19T22:43:16.925Z,7.73
2019-04-19T22:45:49.030Z,7.87
2019-04-19T22:48:18.312Z,11.23
2019-04-19T22:50:44.898Z,11.70
2019-04-19T22:53:19.097Z,10.13
2019-04-19T22:55:51.349Z,10.03
2019-04-19T22:58:18.890Z,9.57
2019-04-19T23:00:45.522Z,9.10
2019-04-19T23:03:33.658Z,9.87
2019-04-19T23:05:59.560Z,10.77
2019-04-19T23:08:33.091Z,9.03
2019-04-19T23:11:02.541Z,13.00
2019-04-19T23:13:29.408Z,11.73
2019-04-19T23:16:04.606Z,12.87
2019-04-19T23:18:30.355Z,7.93
2019-04-19T23:21:08.015Z,10.90
2019-04-19T23:23:31.339Z,10.87
2019-04-19T23:26:15.303Z,9.67
2019-04-19T23:28:32.907Z,10.57
2019-04-19T23:31:03.519Z,9.20
2019-04-19T23:33:28.109Z,9.30
2019-04-19T23:35:57.491Z,10.10
2019-04-19T23:38:29.296Z,9.87
2019-04-19T23:40:57.145Z,7.67
2019-04-19T23:43:32.137Z,8.17
2019-04-19T23:45:55.735Z,10.60
2019-04-19T23:48:27.975Z,8.60
2019-04-19T23:50:54.671Z,8.27
2019-04-19T23:53:30.087Z,11.40
2019-04-19T23:55:54.081Z,9.03
2019-04-19T23:58:28.426Z,9.27
